Terminal Aerodrome Forecast
Issued by NWS

Home | Current Version | Previous Version | Text Only | Print | Product List | Glossary On
Versions: 1 2 3 4 5 6 7 8 9 10 11 12 13 14
000
FTUS44 KMAF 282100 AAA
TAFCNM
TAF AMD
KCNM 282133Z 2822/2918 26014G24KT P6SM SKC
     FM290000 33007KT P6SM SKC
     FM291400 33018KT P6SM BKN250
     FM291700 02019G29KT P6SM OVC060=

USA.gov is the U.S. government's official web portal to all federal, state and local government web resources and services.